Spartansburg, Pennsylvania
Current Conditions -  °F | °C
As of 2:53 PM on Monday 22 Dec 2014 (Local Time) from KGKJ Reporting Station
Haze Haze  
Wind Chill: 33°   Ceiling: 4300
Heat Index: 37°   Visibility: 6mi
Dew Point: 26°   Wind: 5mph
Humidity: 65%   Direction: NA
Pressure: 30"   Gusts: NA
Location:  41.82°N, 79.68°W
Report Text: KGKJ 221953Z AUTO VRB04KT 6SM HZ BKN043 03/M03 A3000 RMK AO2 SLP172 T00281033 TSNO
Loading
Personal Weather Stations






























Interactive Weather Map New forecast layout! Learn more

10-Day Weather Forecast

Advertisements
Track Severe Weather on mobile